sensor_id;sensor_type;location;lat;lon;timestamp;temperature;humidity
3925;DHT22;1977;52.274;10.518;2023-07-28T00:00:55;20.20;99.90
3925;DHT22;1977;52.274;10.518;2023-07-28T00:03:22;20.20;99.90
3925;DHT22;1977;52.274;10.518;2023-07-28T00:05:49;20.20;99.90
3925;DHT22;1977;52.274;10.518;2023-07-28T00:08:16;20.20;99.90
3925;DHT22;1977;52.274;10.518;2023-07-28T00:10:43;20.20;99.90
3925;DHT22;1977;52.274;10.518;2023-07-28T00:13:09;20.20;99.90
3925;DHT22;1977;52.274;10.518;2023-07-28T00:15:36;20.20;99.90
3925;DHT22;1977;52.274;10.518;2023-07-28T00:18:04;20.20;99.90
3925;DHT22;1977;52.274;10.518;2023-07-28T00:20:31;20.20;99.90
3925;DHT22;1977;52.274;10.518;2023-07-28T00:22:58;20.20;99.90
3925;DHT22;1977;52.274;10.518;2023-07-28T00:25:24;20.20;99.90
3925;DHT22;1977;52.274;10.518;2023-07-28T00:27:51;20.20;99.90
3925;DHT22;1977;52.274;10.518;2023-07-28T00:30:18;20.20;99.90
3925;DHT22;1977;52.274;10.518;2023-07-28T00:32:45;20.20;99.90
3925;DHT22;1977;52.274;10.518;2023-07-28T00:35:13;20.20;99.90
3925;DHT22;1977;52.274;10.518;2023-07-28T00:37:40;20.20;99.90
3925;DHT22;1977;52.274;10.518;2023-07-28T00:40:07;20.20;99.90
3925;DHT22;1977;52.274;10.518;2023-07-28T00:42:34;20.20;99.90
3925;DHT22;1977;52.274;10.518;2023-07-28T00:45:01;20.30;99.90
3925;DHT22;1977;52.274;10.518;2023-07-28T00:47:28;20.30;99.90
3925;DHT22;1977;52.274;10.518;2023-07-28T00:49:55;20.20;99.90
3925;DHT22;1977;52.274;10.518;2023-07-28T00:52:23;19.90;99.90
3925;DHT22;1977;52.274;10.518;2023-07-28T00:54:50;20.20;99.90
3925;DHT22;1977;52.274;10.518;2023-07-28T00:57:17;20.20;99.90
3925;DHT22;1977;52.274;10.518;2023-07-28T00:59:44;20.10;99.90
3925;DHT22;1977;52.274;10.518;2023-07-28T01:02:11;20.20;99.90
3925;DHT22;1977;52.274;10.518;2023-07-28T01:04:39;20.20;99.90
3925;DHT22;1977;52.274;10.518;2023-07-28T01:07:09;20.40;99.90
3925;DHT22;1977;52.274;10.518;2023-07-28T01:09:43;20.10;99.90
3925;DHT22;1977;52.274;10.518;2023-07-28T01:12:13;20.20;99.90
3925;DHT22;1977;52.274;10.518;2023-07-28T01:14:40;20.20;99.90
3925;DHT22;1977;52.274;10.518;2023-07-28T01:17:06;20.20;99.90
3925;DHT22;1977;52.274;10.518;2023-07-28T01:19:33;20.10;99.90
3925;DHT22;1977;52.274;10.518;2023-07-28T01:22:15;20.20;99.90
3925;DHT22;1977;52.274;10.518;2023-07-28T01:24:51;20.40;99.90
3925;DHT22;1977;52.274;10.518;2023-07-28T01:27:20;20.20;99.90
3925;DHT22;1977;52.274;10.518;2023-07-28T01:29:47;20.20;99.90
3925;DHT22;1977;52.274;10.518;2023-07-28T01:32:14;20.10;99.90
3925;DHT22;1977;52.274;10.518;2023-07-28T01:34:41;20.20;99.90
3925;DHT22;1977;52.274;10.518;2023-07-28T01:37:08;20.20;99.90
3925;DHT22;1977;52.274;10.518;2023-07-28T01:39:34;20.20;99.90
3925;DHT22;1977;52.274;10.518;2023-07-28T01:42:01;20.40;99.90
3925;DHT22;1977;52.274;10.518;2023-07-28T01:44:29;20.20;99.90
3925;DHT22;1977;52.274;10.518;2023-07-28T01:46:56;20.20;99.90
3925;DHT22;1977;52.274;10.518;2023-07-28T01:49:23;20.20;99.90
3925;DHT22;1977;52.274;10.518;2023-07-28T01:51:49;20.10;99.90
3925;DHT22;1977;52.274;10.518;2023-07-28T01:54:16;20.40;99.90
3925;DHT22;1977;52.274;10.518;2023-07-28T01:56:43;20.10;99.90
3925;DHT22;1977;52.274;10.518;2023-07-28T01:59:10;20.10;99.90
3925;DHT22;1977;52.274;10.518;2023-07-28T02:01:38;20.10;99.90
3925;DHT22;1977;52.274;10.518;2023-07-28T02:04:05;20.10;99.90
3925;DHT22;1977;52.274;10.518;2023-07-28T02:06:31;20.20;99.90
3925;DHT22;1977;52.274;10.518;2023-07-28T02:08:58;20.20;99.90
3925;DHT22;1977;52.274;10.518;2023-07-28T02:11:25;20.20;99.90
3925;DHT22;1977;52.274;10.518;2023-07-28T02:13:52;20.20;99.90
3925;DHT22;1977;52.274;10.518;2023-07-28T02:16:18;20.30;99.90
3925;DHT22;1977;52.274;10.518;2023-07-28T02:18:46;20.20;99.90
3925;DHT22;1977;52.274;10.518;2023-07-28T02:21:14;20.20;99.90
3925;DHT22;1977;52.274;10.518;2023-07-28T02:23:41;20.20;99.90
3925;DHT22;1977;52.274;10.518;2023-07-28T02:26:07;20.20;99.90
3925;DHT22;1977;52.274;10.518;2023-07-28T02:28:34;20.40;99.90
3925;DHT22;1977;52.274;10.518;2023-07-28T02:31:01;20.30;99.90
3925;DHT22;1977;52.274;10.518;2023-07-28T02:33:28;20.40;99.90
3925;DHT22;1977;52.274;10.518;2023-07-28T02:35:58;20.40;99.90
3925;DHT22;1977;52.274;10.518;2023-07-28T02:38:25;20.20;99.90
3925;DHT22;1977;52.274;10.518;2023-07-28T02:40:51;20.20;99.90
3925;DHT22;1977;52.274;10.518;2023-07-28T02:43:18;20.20;99.90
3925;DHT22;1977;52.274;10.518;2023-07-28T02:45:48;20.20;99.90
3925;DHT22;1977;52.274;10.518;2023-07-28T02:48:14;20.20;99.90
3925;DHT22;1977;52.274;10.518;2023-07-28T02:50:45;20.20;99.90
3925;DHT22;1977;52.274;10.518;2023-07-28T02:53:13;20.20;99.90
3925;DHT22;1977;52.274;10.518;2023-07-28T02:55:41;20.20;99.90
3925;DHT22;1977;52.274;10.518;2023-07-28T02:58:08;20.20;99.90
3925;DHT22;1977;52.274;10.518;2023-07-28T03:00:37;20.20;99.90
3925;DHT22;1977;52.274;10.518;2023-07-28T03:03:04;20.20;99.90
3925;DHT22;1977;52.274;10.518;2023-07-28T03:05:31;20.30;99.90
3925;DHT22;1977;52.274;10.518;2023-07-28T03:07:59;20.40;99.90
3925;DHT22;1977;52.274;10.518;2023-07-28T03:10:27;20.20;99.90
3925;DHT22;1977;52.274;10.518;2023-07-28T03:12:53;20.20;99.90
3925;DHT22;1977;52.274;10.518;2023-07-28T03:15:21;20.50;99.90
3925;DHT22;1977;52.274;10.518;2023-07-28T03:17:48;20.20;99.90
3925;DHT22;1977;52.274;10.518;2023-07-28T03:20:15;20.20;99.90
3925;DHT22;1977;52.274;10.518;2023-07-28T03:22:42;20.20;99.90
3925;DHT22;1977;52.274;10.518;2023-07-28T03:25:10;20.20;99.90
3925;DHT22;1977;52.274;10.518;2023-07-28T03:27:38;20.20;99.90
3925;DHT22;1977;52.274;10.518;2023-07-28T03:30:06;20.40;99.90
3925;DHT22;1977;52.274;10.518;2023-07-28T03:32:36;20.20;99.90
3925;DHT22;1977;52.274;10.518;2023-07-28T03:35:03;20.20;99.90
3925;DHT22;1977;52.274;10.518;2023-07-28T03:37:30;20.20;99.90
3925;DHT22;1977;52.274;10.518;2023-07-28T03:39:57;20.20;99.90
3925;DHT22;1977;52.274;10.518;2023-07-28T03:42:24;20.20;99.90
3925;DHT22;1977;52.274;10.518;2023-07-28T03:44:52;20.30;99.90
3925;DHT22;1977;52.274;10.518;2023-07-28T03:47:19;20.30;99.90
3925;DHT22;1977;52.274;10.518;2023-07-28T03:49:46;20.30;99.90
3925;DHT22;1977;52.274;10.518;2023-07-28T03:52:12;20.30;99.90
3925;DHT22;1977;52.274;10.518;2023-07-28T03:54:39;20.30;99.90
3925;DHT22;1977;52.274;10.518;2023-07-28T03:57:08;20.30;99.90
3925;DHT22;1977;52.274;10.518;2023-07-28T03:59:35;20.50;99.90
3925;DHT22;1977;52.274;10.518;2023-07-28T04:02:03;20.30;99.90
3925;DHT22;1977;52.274;10.518;2023-07-28T04:04:30;20.30;99.90
3925;DHT22;1977;52.274;10.518;2023-07-28T04:06:57;20.30;99.90
3925;DHT22;1977;52.274;10.518;2023-07-28T04:09:24;20.30;99.90
3925;DHT22;1977;52.274;10.518;2023-07-28T04:11:51;20.30;99.90
3925;DHT22;1977;52.274;10.518;2023-07-28T04:14:17;20.20;99.90
3925;DHT22;1977;52.274;10.518;2023-07-28T04:16:44;20.30;99.90
3925;DHT22;1977;52.274;10.518;2023-07-28T04:19:12;20.20;99.90
3925;DHT22;1977;52.274;10.518;2023-07-28T04:21:39;20.50;99.90
3925;DHT22;1977;52.274;10.518;2023-07-28T04:24:06;20.20;99.90
3925;DHT22;1977;52.274;10.518;2023-07-28T04:26:33;20.20;99.90
3925;DHT22;1977;52.274;10.518;2023-07-28T04:29:00;20.20;99.90
3925;DHT22;1977;52.274;10.518;2023-07-28T04:31:27;20.30;99.90
3925;DHT22;1977;52.274;10.518;2023-07-28T04:33:53;20.20;99.90
3925;DHT22;1977;52.274;10.518;2023-07-28T04:36:22;20.20;99.90
3925;DHT22;1977;52.274;10.518;2023-07-28T04:38:48;20.20;99.90
3925;DHT22;1977;52.274;10.518;2023-07-28T04:41:15;20.30;99.90
3925;DHT22;1977;52.274;10.518;2023-07-28T04:43:42;20.40;99.90
3925;DHT22;1977;52.274;10.518;2023-07-28T04:46:09;20.20;99.90
3925;DHT22;1977;52.274;10.518;2023-07-28T04:48:35;20.40;99.90
3925;DHT22;1977;52.274;10.518;2023-07-28T04:51:02;20.20;99.90
3925;DHT22;1977;52.274;10.518;2023-07-28T04:53:30;20.50;99.90
3925;DHT22;1977;52.274;10.518;2023-07-28T04:55:57;20.30;99.90
3925;DHT22;1977;52.274;10.518;2023-07-28T04:58:24;20.30;99.90
3925;DHT22;1977;52.274;10.518;2023-07-28T05:00:51;20.30;99.90
3925;DHT22;1977;52.274;10.518;2023-07-28T05:03:18;20.30;99.90
3925;DHT22;1977;52.274;10.518;2023-07-28T05:05:44;20.30;99.90
3925;DHT22;1977;52.274;10.518;2023-07-28T05:08:11;20.30;99.90
3925;DHT22;1977;52.274;10.518;2023-07-28T05:10:41;20.30;99.90
3925;DHT22;1977;52.274;10.518;2023-07-28T05:13:07;20.30;99.90
3925;DHT22;1977;52.274;10.518;2023-07-28T05:15:34;20.30;99.90
3925;DHT22;1977;52.274;10.518;2023-07-28T05:18:01;20.50;99.90
3925;DHT22;1977;52.274;10.518;2023-07-28T05:20:28;20.30;99.90
3925;DHT22;1977;52.274;10.518;2023-07-28T05:22:54;20.40;99.90
3925;DHT22;1977;52.274;10.518;2023-07-28T05:25:21;20.40;99.90
3925;DHT22;1977;52.274;10.518;2023-07-28T05:27:49;20.40;99.90
3925;DHT22;1977;52.274;10.518;2023-07-28T05:30:16;20.40;99.90
3925;DHT22;1977;52.274;10.518;2023-07-28T05:32:43;20.40;99.90
3925;DHT22;1977;52.274;10.518;2023-07-28T05:35:11;20.40;99.90
3925;DHT22;1977;52.274;10.518;2023-07-28T05:37:38;20.40;99.90
3925;DHT22;1977;52.274;10.518;2023-07-28T05:40:06;20.60;99.90
3925;DHT22;1977;52.274;10.518;2023-07-28T05:42:33;20.40;99.90
3925;DHT22;1977;52.274;10.518;2023-07-28T05:45:01;20.40;99.90
3925;DHT22;1977;52.274;10.518;2023-07-28T05:47:28;20.40;99.90
3925;DHT22;1977;52.274;10.518;2023-07-28T05:49:55;20.40;99.90
3925;DHT22;1977;52.274;10.518;2023-07-28T05:52:22;20.40;99.90
3925;DHT22;1977;52.274;10.518;2023-07-28T05:54:49;20.50;99.90
3925;DHT22;1977;52.274;10.518;2023-07-28T05:57:16;20.40;99.90
3925;DHT22;1977;52.274;10.518;2023-07-28T05:59:42;20.40;99.90
3925;DHT22;1977;52.274;10.518;2023-07-28T06:02:10;20.40;99.90
3925;DHT22;1977;52.274;10.518;2023-07-28T06:04:37;20.70;99.90
3925;DHT22;1977;52.274;10.518;2023-07-28T06:07:05;20.40;99.90
3925;DHT22;1977;52.274;10.518;2023-07-28T06:09:32;20.50;99.90
3925;DHT22;1977;52.274;10.518;2023-07-28T06:11:58;20.60;99.90
3925;DHT22;1977;52.274;10.518;2023-07-28T06:14:25;20.60;99.90
3925;DHT22;1977;52.274;10.518;2023-07-28T06:16:52;20.40;99.90
3925;DHT22;1977;52.274;10.518;2023-07-28T06:19:20;20.40;99.90
3925;DHT22;1977;52.274;10.518;2023-07-28T06:21:49;20.40;99.90
3925;DHT22;1977;52.274;10.518;2023-07-28T06:24:16;20.50;99.90
3925;DHT22;1977;52.274;10.518;2023-07-28T06:26:43;20.50;99.90
3925;DHT22;1977;52.274;10.518;2023-07-28T06:29:09;20.50;99.90
3925;DHT22;1977;52.274;10.518;2023-07-28T06:31:36;20.50;99.90
3925;DHT22;1977;52.274;10.518;2023-07-28T06:34:03;20.70;99.90
3925;DHT22;1977;52.274;10.518;2023-07-28T06:36:31;20.50;99.90
3925;DHT22;1977;52.274;10.518;2023-07-28T06:38:58;20.80;99.90
3925;DHT22;1977;52.274;10.518;2023-07-28T06:41:25;20.50;99.90
3925;DHT22;1977;52.274;10.518;2023-07-28T06:43:51;20.50;99.90
3925;DHT22;1977;52.274;10.518;2023-07-28T06:46:18;20.50;99.90
3925;DHT22;1977;52.274;10.518;2023-07-28T06:48:45;20.70;99.90
3925;DHT22;1977;52.274;10.518;2023-07-28T06:51:12;20.60;99.90
3925;DHT22;1977;52.274;10.518;2023-07-28T06:53:40;20.60;99.90
3925;DHT22;1977;52.274;10.518;2023-07-28T06:56:07;20.50;99.90
3925;DHT22;1977;52.274;10.518;2023-07-28T06:58:34;20.60;99.90
3925;DHT22;1977;52.274;10.518;2023-07-28T07:01:00;20.80;99.90
3925;DHT22;1977;52.274;10.518;2023-07-28T07:03:27;20.60;99.90
3925;DHT22;1977;52.274;10.518;2023-07-28T07:05:54;20.80;99.90
3925;DHT22;1977;52.274;10.518;2023-07-28T07:08:21;20.60;99.90
3925;DHT22;1977;52.274;10.518;2023-07-28T07:10:50;20.70;99.90
3925;DHT22;1977;52.274;10.518;2023-07-28T07:13:17;20.80;99.90
3925;DHT22;1977;52.274;10.518;2023-07-28T07:15:43;20.70;99.90
3925;DHT22;1977;52.274;10.518;2023-07-28T07:18:11;20.70;99.90
3925;DHT22;1977;52.274;10.518;2023-07-28T07:20:38;21.00;99.90
3925;DHT22;1977;52.274;10.518;2023-07-28T07:23:05;20.80;99.90
3925;DHT22;1977;52.274;10.518;2023-07-28T07:25:32;21.00;99.90
3925;DHT22;1977;52.274;10.518;2023-07-28T07:28:01;20.90;99.90
3925;DHT22;1977;52.274;10.518;2023-07-28T07:30:27;21.00;99.90
3925;DHT22;1977;52.274;10.518;2023-07-28T07:32:54;21.10;99.90
3925;DHT22;1977;52.274;10.518;2023-07-28T07:35:21;21.10;99.90
3925;DHT22;1977;52.274;10.518;2023-07-28T07:37:48;21.10;99.90
3925;DHT22;1977;52.274;10.518;2023-07-28T07:40:14;21.20;99.90
3925;DHT22;1977;52.274;10.518;2023-07-28T07:42:42;21.20;99.90
3925;DHT22;1977;52.274;10.518;2023-07-28T07:45:12;21.10;99.90
3925;DHT22;1977;52.274;10.518;2023-07-28T07:47:39;21.10;99.90
3925;DHT22;1977;52.274;10.518;2023-07-28T07:50:07;21.00;99.90
3925;DHT22;1977;52.274;10.518;2023-07-28T07:52:35;21.00;99.90
3925;DHT22;1977;52.274;10.518;2023-07-28T07:55:02;21.00;99.90
3925;DHT22;1977;52.274;10.518;2023-07-28T07:57:29;21.00;99.90
3925;DHT22;1977;52.274;10.518;2023-07-28T07:59:57;21.00;99.90
3925;DHT22;1977;52.274;10.518;2023-07-28T08:02:25;21.00;99.90
3925;DHT22;1977;52.274;10.518;2023-07-28T08:04:52;21.00;99.90
3925;DHT22;1977;52.274;10.518;2023-07-28T08:07:19;21.00;99.90
3925;DHT22;1977;52.274;10.518;2023-07-28T08:09:46;21.30;99.90
3925;DHT22;1977;52.274;10.518;2023-07-28T08:12:14;21.10;99.90
3925;DHT22;1977;52.274;10.518;2023-07-28T08:14:41;21.10;99.90
3925;DHT22;1977;52.274;10.518;2023-07-28T08:17:08;21.10;99.90
3925;DHT22;1977;52.274;10.518;2023-07-28T08:19:36;21.10;99.90
3925;DHT22;1977;52.274;10.518;2023-07-28T08:22:03;21.30;99.90
3925;DHT22;1977;52.274;10.518;2023-07-28T08:24:30;21.20;99.90
3925;DHT22;1977;52.274;10.518;2023-07-28T08:26:57;21.30;99.90
3925;DHT22;1977;52.274;10.518;2023-07-28T08:29:24;21.50;99.90
3925;DHT22;1977;52.274;10.518;2023-07-28T08:31:51;21.30;99.90
3925;DHT22;1977;52.274;10.518;2023-07-28T08:34:17;21.50;99.90
3925;DHT22;1977;52.274;10.518;2023-07-28T08:36:46;21.60;99.90
3925;DHT22;1977;52.274;10.518;2023-07-28T08:39:12;21.50;99.90
3925;DHT22;1977;52.274;10.518;2023-07-28T08:41:40;21.50;99.90
3925;DHT22;1977;52.274;10.518;2023-07-28T08:44:07;21.50;99.90
3925;DHT22;1977;52.274;10.518;2023-07-28T08:46:34;21.60;99.90
3925;DHT22;1977;52.274;10.518;2023-07-28T08:49:01;21.70;99.90
3925;DHT22;1977;52.274;10.518;2023-07-28T08:51:28;21.60;99.90
3925;DHT22;1977;52.274;10.518;2023-07-28T08:53:56;21.80;99.90
3925;DHT22;1977;52.274;10.518;2023-07-28T08:56:23;22.00;99.90
3925;DHT22;1977;52.274;10.518;2023-07-28T08:58:57;21.90;99.90
3925;DHT22;1977;52.274;10.518;2023-07-28T09:01:24;21.90;99.90
3925;DHT22;1977;52.274;10.518;2023-07-28T09:03:50;21.90;99.90
3925;DHT22;1977;52.274;10.518;2023-07-28T09:06:17;22.00;99.90
3925;DHT22;1977;52.274;10.518;2023-07-28T09:08:45;22.00;99.90
3925;DHT22;1977;52.274;10.518;2023-07-28T09:11:13;21.90;99.90
3925;DHT22;1977;52.274;10.518;2023-07-28T09:13:41;21.90;99.90
3925;DHT22;1977;52.274;10.518;2023-07-28T09:16:16;22.10;99.90
3925;DHT22;1977;52.274;10.518;2023-07-28T09:18:44;21.90;99.90
3925;DHT22;1977;52.274;10.518;2023-07-28T09:21:16;21.90;99.90
3925;DHT22;1977;52.274;10.518;2023-07-28T09:23:44;21.90;99.90
3925;DHT22;1977;52.274;10.518;2023-07-28T09:26:12;22.00;99.90
3925;DHT22;1977;52.274;10.518;2023-07-28T09:28:41;22.00;99.90
3925;DHT22;1977;52.274;10.518;2023-07-28T09:31:08;22.10;99.90
3925;DHT22;1977;52.274;10.518;2023-07-28T09:33:36;22.10;99.90
3925;DHT22;1977;52.274;10.518;2023-07-28T09:36:09;22.30;99.90
3925;DHT22;1977;52.274;10.518;2023-07-28T09:38:37;22.10;99.90
3925;DHT22;1977;52.274;10.518;2023-07-28T09:41:06;22.40;99.90
3925;DHT22;1977;52.274;10.518;2023-07-28T09:43:36;22.40;99.90
3925;DHT22;1977;52.274;10.518;2023-07-28T09:46:04;22.60;99.90
3925;DHT22;1977;52.274;10.518;2023-07-28T09:48:33;22.80;99.90
3925;DHT22;1977;52.274;10.518;2023-07-28T09:51:03;22.90;99.90
3925;DHT22;1977;52.274;10.518;2023-07-28T09:53:33;23.10;99.90
3925;DHT22;1977;52.274;10.518;2023-07-28T09:56:02;23.20;99.90
3925;DHT22;1977;52.274;10.518;2023-07-28T09:58:32;23.60;99.90
3925;DHT22;1977;52.274;10.518;2023-07-28T10:01:01;24.00;99.90
3925;DHT22;1977;52.274;10.518;2023-07-28T10:03:31;24.70;99.90
3925;DHT22;1977;52.274;10.518;2023-07-28T10:05:59;24.90;99.90
3925;DHT22;1977;52.274;10.518;2023-07-28T10:08:27;24.90;99.90
3925;DHT22;1977;52.274;10.518;2023-07-28T10:10:54;25.20;99.90
3925;DHT22;1977;52.274;10.518;2023-07-28T10:13:22;26.20;99.90
3925;DHT22;1977;52.274;10.518;2023-07-28T10:15:50;26.50;99.90
3925;DHT22;1977;52.274;10.518;2023-07-28T10:18:19;26.50;99.90
3925;DHT22;1977;52.274;10.518;2023-07-28T10:20:46;26.20;99.90
3925;DHT22;1977;52.274;10.518;2023-07-28T10:23:16;26.10;99.90
3925;DHT22;1977;52.274;10.518;2023-07-28T10:25:44;26.10;99.90
3925;DHT22;1977;52.274;10.518;2023-07-28T10:28:29;26.10;99.90
3925;DHT22;1977;52.274;10.518;2023-07-28T10:30:58;26.10;99.90
3925;DHT22;1977;52.274;10.518;2023-07-28T10:33:33;26.10;99.90
3925;DHT22;1977;52.274;10.518;2023-07-28T10:36:11;26.10;99.90
3925;DHT22;1977;52.274;10.518;2023-07-28T10:38:39;26.20;99.90
3925;DHT22;1977;52.274;10.518;2023-07-28T10:41:11;26.10;99.90
3925;DHT22;1977;52.274;10.518;2023-07-28T10:43:40;25.90;99.90
3925;DHT22;1977;52.274;10.518;2023-07-28T10:46:08;25.60;99.90
3925;DHT22;1977;52.274;10.518;2023-07-28T10:48:41;25.40;99.90
3925;DHT22;1977;52.274;10.518;2023-07-28T10:51:09;25.30;99.90
3925;DHT22;1977;52.274;10.518;2023-07-28T10:53:37;25.30;99.90
3925;DHT22;1977;52.274;10.518;2023-07-28T10:56:04;25.30;99.90
3925;DHT22;1977;52.274;10.518;2023-07-28T10:58:33;25.30;99.90
3925;DHT22;1977;52.274;10.518;2023-07-28T11:01:00;25.40;99.90
3925;DHT22;1977;52.274;10.518;2023-07-28T11:03:28;25.60;99.90
3925;DHT22;1977;52.274;10.518;2023-07-28T11:05:56;25.30;99.90
3925;DHT22;1977;52.274;10.518;2023-07-28T11:08:23;25.10;99.90
3925;DHT22;1977;52.274;10.518;2023-07-28T11:10:50;25.00;99.90
3925;DHT22;1977;52.274;10.518;2023-07-28T11:13:17;24.90;99.90
3925;DHT22;1977;52.274;10.518;2023-07-28T11:15:44;24.90;99.90
3925;DHT22;1977;52.274;10.518;2023-07-28T11:18:11;24.80;99.90
3925;DHT22;1977;52.274;10.518;2023-07-28T11:20:41;24.80;99.90
3925;DHT22;1977;52.274;10.518;2023-07-28T11:25:53;24.70;99.90
3925;DHT22;1977;52.274;10.518;2023-07-28T11:28:21;24.70;99.90
3925;DHT22;1977;52.274;10.518;2023-07-28T11:30:49;24.80;99.90
3925;DHT22;1977;52.274;10.518;2023-07-28T11:33:16;24.70;99.90
3925;DHT22;1977;52.274;10.518;2023-07-28T11:35:44;24.70;99.90
3925;DHT22;1977;52.274;10.518;2023-07-28T11:38:12;24.70;99.90
3925;DHT22;1977;52.274;10.518;2023-07-28T11:40:47;24.70;99.90
3925;DHT22;1977;52.274;10.518;2023-07-28T11:43:14;24.70;99.90
3925;DHT22;1977;52.274;10.518;2023-07-28T11:45:41;24.70;99.90
3925;DHT22;1977;52.274;10.518;2023-07-28T11:48:08;24.70;99.90
3925;DHT22;1977;52.274;10.518;2023-07-28T11:50:36;24.70;99.90
3925;DHT22;1977;52.274;10.518;2023-07-28T11:53:04;24.70;99.90
3925;DHT22;1977;52.274;10.518;2023-07-28T11:55:32;24.80;99.90
3925;DHT22;1977;52.274;10.518;2023-07-28T11:58:01;24.60;99.90
3925;DHT22;1977;52.274;10.518;2023-07-28T12:00:30;24.70;99.90
3925;DHT22;1977;52.274;10.518;2023-07-28T12:03:07;24.60;99.90
3925;DHT22;1977;52.274;10.518;2023-07-28T12:05:37;24.60;99.90
3925;DHT22;1977;52.274;10.518;2023-07-28T12:08:04;24.70;99.90
3925;DHT22;1977;52.274;10.518;2023-07-28T12:10:33;24.60;99.90
3925;DHT22;1977;52.274;10.518;2023-07-28T12:13:05;24.80;99.90
3925;DHT22;1977;52.274;10.518;2023-07-28T12:15:33;24.80;99.90
3925;DHT22;1977;52.274;10.518;2023-07-28T12:18:09;24.80;99.90
3925;DHT22;1977;52.274;10.518;2023-07-28T12:20:37;24.90;99.90
3925;DHT22;1977;52.274;10.518;2023-07-28T12:23:05;24.80;99.90
3925;DHT22;1977;52.274;10.518;2023-07-28T12:25:32;24.80;99.90
3925;DHT22;1977;52.274;10.518;2023-07-28T12:27:59;24.70;99.90
3925;DHT22;1977;52.274;10.518;2023-07-28T12:30:28;24.80;99.90
3925;DHT22;1977;52.274;10.518;2023-07-28T12:32:55;24.80;99.90
3925;DHT22;1977;52.274;10.518;2023-07-28T12:35:22;24.90;99.90
3925;DHT22;1977;52.274;10.518;2023-07-28T12:37:50;24.90;99.90
3925;DHT22;1977;52.274;10.518;2023-07-28T12:40:17;24.90;99.90
3925;DHT22;1977;52.274;10.518;2023-07-28T12:42:45;24.80;99.90
3925;DHT22;1977;52.274;10.518;2023-07-28T12:45:13;24.80;99.90
3925;DHT22;1977;52.274;10.518;2023-07-28T12:47:42;24.70;99.90
3925;DHT22;1977;52.274;10.518;2023-07-28T12:50:10;24.70;99.90
3925;DHT22;1977;52.274;10.518;2023-07-28T12:52:38;24.70;99.90
3925;DHT22;1977;52.274;10.518;2023-07-28T12:55:05;24.70;99.90
3925;DHT22;1977;52.274;10.518;2023-07-28T12:57:32;24.80;99.90
3925;DHT22;1977;52.274;10.518;2023-07-28T12:59:59;24.80;99.90
3925;DHT22;1977;52.274;10.518;2023-07-28T13:02:28;24.80;99.90
3925;DHT22;1977;52.274;10.518;2023-07-28T13:04:56;24.90;99.90
3925;DHT22;1977;52.274;10.518;2023-07-28T13:07:22;24.90;99.90
3925;DHT22;1977;52.274;10.518;2023-07-28T13:09:49;24.90;99.90
3925;DHT22;1977;52.274;10.518;2023-07-28T13:12:16;25.00;99.90
3925;DHT22;1977;52.274;10.518;2023-07-28T13:14:43;25.00;99.90
3925;DHT22;1977;52.274;10.518;2023-07-28T13:17:10;24.90;99.90
3925;DHT22;1977;52.274;10.518;2023-07-28T13:19:38;24.90;99.90
3925;DHT22;1977;52.274;10.518;2023-07-28T13:22:08;25.00;99.90
3925;DHT22;1977;52.274;10.518;2023-07-28T13:24:35;25.00;99.90
3925;DHT22;1977;52.274;10.518;2023-07-28T13:27:03;25.00;99.90
3925;DHT22;1977;52.274;10.518;2023-07-28T13:29:30;25.00;99.90
3925;DHT22;1977;52.274;10.518;2023-07-28T13:31:58;24.90;99.90
3925;DHT22;1977;52.274;10.518;2023-07-28T13:34:28;25.00;99.90
3925;DHT22;1977;52.274;10.518;2023-07-28T13:36:55;25.10;99.90
3925;DHT22;1977;52.274;10.518;2023-07-28T13:39:24;25.00;99.90
3925;DHT22;1977;52.274;10.518;2023-07-28T13:41:51;24.90;99.90
3925;DHT22;1977;52.274;10.518;2023-07-28T13:44:18;24.90;99.90
3925;DHT22;1977;52.274;10.518;2023-07-28T13:46:45;24.70;99.90
3925;DHT22;1977;52.274;10.518;2023-07-28T13:49:13;25.00;99.90
3925;DHT22;1977;52.274;10.518;2023-07-28T13:51:42;25.00;99.90
3925;DHT22;1977;52.274;10.518;2023-07-28T13:54:10;25.00;99.90
3925;DHT22;1977;52.274;10.518;2023-07-28T13:56:38;25.00;99.90
3925;DHT22;1977;52.274;10.518;2023-07-28T13:59:05;25.10;99.90
3925;DHT22;1977;52.274;10.518;2023-07-28T14:01:34;25.10;99.90
3925;DHT22;1977;52.274;10.518;2023-07-28T14:04:05;25.10;99.90
3925;DHT22;1977;52.274;10.518;2023-07-28T14:06:32;25.10;99.90
3925;DHT22;1977;52.274;10.518;2023-07-28T14:08:59;25.10;99.90
3925;DHT22;1977;52.274;10.518;2023-07-28T14:11:26;25.00;99.90
3925;DHT22;1977;52.274;10.518;2023-07-28T14:13:54;25.00;99.90
3925;DHT22;1977;52.274;10.518;2023-07-28T14:16:21;25.00;99.90
3925;DHT22;1977;52.274;10.518;2023-07-28T14:18:48;25.00;99.90
3925;DHT22;1977;52.274;10.518;2023-07-28T14:21:18;25.00;99.90
3925;DHT22;1977;52.274;10.518;2023-07-28T14:23:45;25.00;99.90
3925;DHT22;1977;52.274;10.518;2023-07-28T14:26:14;25.00;99.90
3925;DHT22;1977;52.274;10.518;2023-07-28T14:28:45;24.90;99.90
3925;DHT22;1977;52.274;10.518;2023-07-28T14:31:16;25.00;99.90
3925;DHT22;1977;52.274;10.518;2023-07-28T14:33:43;24.90;99.90
3925;DHT22;1977;52.274;10.518;2023-07-28T14:36:10;24.70;99.90
3925;DHT22;1977;52.274;10.518;2023-07-28T14:38:38;24.90;99.90
3925;DHT22;1977;52.274;10.518;2023-07-28T14:41:07;24.80;99.90
3925;DHT22;1977;52.274;10.518;2023-07-28T14:43:34;24.80;99.90
3925;DHT22;1977;52.274;10.518;2023-07-28T14:46:01;24.80;99.90
3925;DHT22;1977;52.274;10.518;2023-07-28T14:48:29;24.90;99.90
3925;DHT22;1977;52.274;10.518;2023-07-28T14:50:56;24.70;99.90
3925;DHT22;1977;52.274;10.518;2023-07-28T14:53:34;24.70;99.90
3925;DHT22;1977;52.274;10.518;2023-07-28T14:56:02;24.70;99.90
3925;DHT22;1977;52.274;10.518;2023-07-28T14:58:30;24.90;99.90
3925;DHT22;1977;52.274;10.518;2023-07-28T15:00:58;24.80;99.90
3925;DHT22;1977;52.274;10.518;2023-07-28T15:03:29;24.80;99.90
3925;DHT22;1977;52.274;10.518;2023-07-28T15:05:56;24.80;99.90
3925;DHT22;1977;52.274;10.518;2023-07-28T15:08:23;24.80;99.90
3925;DHT22;1977;52.274;10.518;2023-07-28T15:10:50;24.70;99.90
3925;DHT22;1977;52.274;10.518;2023-07-28T15:13:17;24.80;99.90
3925;DHT22;1977;52.274;10.518;2023-07-28T15:15:44;24.70;99.90
3925;DHT22;1977;52.274;10.518;2023-07-28T15:18:11;24.80;99.90
3925;DHT22;1977;52.274;10.518;2023-07-28T15:20:40;24.70;99.90
3925;DHT22;1977;52.274;10.518;2023-07-28T15:23:07;24.70;99.90
3925;DHT22;1977;52.274;10.518;2023-07-28T15:25:34;24.70;99.90
3925;DHT22;1977;52.274;10.518;2023-07-28T15:28:01;24.80;99.90
3925;DHT22;1977;52.274;10.518;2023-07-28T15:30:28;24.70;99.90
3925;DHT22;1977;52.274;10.518;2023-07-28T15:32:55;24.70;99.90
3925;DHT22;1977;52.274;10.518;2023-07-28T15:35:22;24.70;99.90
3925;DHT22;1977;52.274;10.518;2023-07-28T15:37:50;24.70;99.90
3925;DHT22;1977;52.274;10.518;2023-07-28T15:40:17;24.70;99.90
3925;DHT22;1977;52.274;10.518;2023-07-28T15:42:44;24.70;99.90
3925;DHT22;1977;52.274;10.518;2023-07-28T15:45:11;24.80;99.90
3925;DHT22;1977;52.274;10.518;2023-07-28T15:47:38;24.80;99.90
3925;DHT22;1977;52.274;10.518;2023-07-28T15:50:07;24.80;99.90